sensor_id;sensor_type;location;lat;lon;timestamp;temperature;humidity
19654;DHT22;9975;48.046;7.804;2023-03-23T01:56:52;14.30;73.60
19654;DHT22;9975;48.046;7.804;2023-03-23T01:59:20;14.40;72.80
19654;DHT22;9975;48.046;7.804;2023-03-23T02:01:46;14.50;72.40
19654;DHT22;9975;48.046;7.804;2023-03-23T02:04:16;14.50;71.00
19654;DHT22;9975;48.046;7.804;2023-03-23T02:06:43;14.60;70.70
19654;DHT22;9975;48.046;7.804;2023-03-23T02:09:11;14.60;69.60
19654;DHT22;9975;48.046;7.804;2023-03-23T02:11:37;14.70;68.90
19654;DHT22;9975;48.046;7.804;2023-03-23T02:14:02;14.70;67.90
19654;DHT22;9975;48.046;7.804;2023-03-23T02:16:50;14.70;68.20
19654;DHT22;9975;48.046;7.804;2023-03-23T02:27:29;14.90;65.40
19654;DHT22;9975;48.046;7.804;2023-03-23T02:30:33;14.80;65.20
19654;DHT22;9975;48.046;7.804;2023-03-23T02:35:38;14.80;64.80
19654;DHT22;9975;48.046;7.804;2023-03-23T02:38:14;14.80;64.70
19654;DHT22;9975;48.046;7.804;2023-03-23T02:40:44;14.80;64.40
19654;DHT22;9975;48.046;7.804;2023-03-23T02:43:14;14.70;64.30
19654;DHT22;9975;48.046;7.804;2023-03-23T02:45:42;14.80;63.60
19654;DHT22;9975;48.046;7.804;2023-03-23T02:48:10;14.90;63.00
19654;DHT22;9975;48.046;7.804;2023-03-23T02:50:40;14.90;62.30
19654;DHT22;9975;48.046;7.804;2023-03-23T02:53:09;15.00;62.10
19654;DHT22;9975;48.046;7.804;2023-03-23T02:55:38;15.00;61.60
19654;DHT22;9975;48.046;7.804;2023-03-23T02:58:08;15.20;60.30
19654;DHT22;9975;48.046;7.804;2023-03-23T03:00:34;15.20;59.90
19654;DHT22;9975;48.046;7.804;2023-03-23T03:03:00;15.40;58.50
19654;DHT22;9975;48.046;7.804;2023-03-23T03:08:10;15.40;58.80
19654;DHT22;9975;48.046;7.804;2023-03-23T03:10:52;15.40;58.80
19654;DHT22;9975;48.046;7.804;2023-03-23T03:16:02;15.50;57.50
19654;DHT22;9975;48.046;7.804;2023-03-23T03:21:13;15.60;56.30
19654;DHT22;9975;48.046;7.804;2023-03-23T03:23:42;15.70;56.10
19654;DHT22;9975;48.046;7.804;2023-03-23T03:26:12;15.70;56.70
19654;DHT22;9975;48.046;7.804;2023-03-23T03:28:38;15.70;55.90
19654;DHT22;9975;48.046;7.804;2023-03-23T03:31:05;15.70;55.40
19654;DHT22;9975;48.046;7.804;2023-03-23T03:33:32;15.70;55.20
19654;DHT22;9975;48.046;7.804;2023-03-23T03:36:03;15.70;55.10
19654;DHT22;9975;48.046;7.804;2023-03-23T03:38:45;15.80;54.60
19654;DHT22;9975;48.046;7.804;2023-03-23T03:41:10;16.00;54.70
19654;DHT22;9975;48.046;7.804;2023-03-23T03:43:36;15.90;54.10
19654;DHT22;9975;48.046;7.804;2023-03-23T03:46:02;16.00;54.00
19654;DHT22;9975;48.046;7.804;2023-03-23T03:48:27;16.00;53.80
19654;DHT22;9975;48.046;7.804;2023-03-23T03:50:53;16.00;53.70
19654;DHT22;9975;48.046;7.804;2023-03-23T03:53:22;16.00;53.60
19654;DHT22;9975;48.046;7.804;2023-03-23T03:55:48;15.90;53.70
19654;DHT22;9975;48.046;7.804;2023-03-23T03:58:15;15.90;53.90
19654;DHT22;9975;48.046;7.804;2023-03-23T04:00:42;15.90;54.00
19654;DHT22;9975;48.046;7.804;2023-03-23T04:03:08;15.90;53.90
19654;DHT22;9975;48.046;7.804;2023-03-23T04:05:34;16.00;53.50
19654;DHT22;9975;48.046;7.804;2023-03-23T04:08:02;16.00;53.40
19654;DHT22;9975;48.046;7.804;2023-03-23T04:10:29;16.00;53.10
19654;DHT22;9975;48.046;7.804;2023-03-23T04:12:56;16.10;53.30
19654;DHT22;9975;48.046;7.804;2023-03-23T04:15:22;16.00;53.40
19654;DHT22;9975;48.046;7.804;2023-03-23T04:17:48;16.00;53.10
19654;DHT22;9975;48.046;7.804;2023-03-23T04:20:15;16.00;53.10
19654;DHT22;9975;48.046;7.804;2023-03-23T04:22:46;16.10;53.20
19654;DHT22;9975;48.046;7.804;2023-03-23T04:25:16;16.10;53.10
19654;DHT22;9975;48.046;7.804;2023-03-23T04:27:43;16.10;53.10
19654;DHT22;9975;48.046;7.804;2023-03-23T04:30:10;16.10;52.90
19654;DHT22;9975;48.046;7.804;2023-03-23T04:32:37;16.10;53.30
19654;DHT22;9975;48.046;7.804;2023-03-23T04:35:11;16.10;53.30
19654;DHT22;9975;48.046;7.804;2023-03-23T04:37:37;16.10;53.10
19654;DHT22;9975;48.046;7.804;2023-03-23T04:40:04;16.10;53.30
19654;DHT22;9975;48.046;7.804;2023-03-23T04:42:37;16.10;53.10
19654;DHT22;9975;48.046;7.804;2023-03-23T04:45:05;16.10;53.40
19654;DHT22;9975;48.046;7.804;2023-03-23T04:47:33;16.10;53.20
19654;DHT22;9975;48.046;7.804;2023-03-23T04:49:59;16.10;53.00
19654;DHT22;9975;48.046;7.804;2023-03-23T04:52:26;16.10;53.20
19654;DHT22;9975;48.046;7.804;2023-03-23T04:54:54;16.10;53.40
19654;DHT22;9975;48.046;7.804;2023-03-23T04:57:21;16.10;53.50
19654;DHT22;9975;48.046;7.804;2023-03-23T04:59:47;16.10;53.70
19654;DHT22;9975;48.046;7.804;2023-03-23T05:02:13;16.00;53.60
19654;DHT22;9975;48.046;7.804;2023-03-23T05:04:40;16.00;53.80
19654;DHT22;9975;48.046;7.804;2023-03-23T05:07:07;16.00;53.50
19654;DHT22;9975;48.046;7.804;2023-03-23T05:09:33;16.00;54.10
19654;DHT22;9975;48.046;7.804;2023-03-23T05:12:07;16.00;54.20
19654;DHT22;9975;48.046;7.804;2023-03-23T05:14:33;16.00;54.40
19654;DHT22;9975;48.046;7.804;2023-03-23T05:17:00;15.90;54.60
19654;DHT22;9975;48.046;7.804;2023-03-23T05:19:26;15.90;54.70
19654;DHT22;9975;48.046;7.804;2023-03-23T05:21:54;15.90;55.10
19654;DHT22;9975;48.046;7.804;2023-03-23T05:24:21;15.90;55.20
19654;DHT22;9975;48.046;7.804;2023-03-23T05:26:47;15.90;55.30
19654;DHT22;9975;48.046;7.804;2023-03-23T05:29:17;15.80;54.90
19654;DHT22;9975;48.046;7.804;2023-03-23T05:31:43;15.90;55.60
19654;DHT22;9975;48.046;7.804;2023-03-23T05:34:09;15.90;55.70
19654;DHT22;9975;48.046;7.804;2023-03-23T05:36:35;15.90;55.70
19654;DHT22;9975;48.046;7.804;2023-03-23T05:39:00;15.90;55.80
19654;DHT22;9975;48.046;7.804;2023-03-23T05:41:29;15.90;56.00
19654;DHT22;9975;48.046;7.804;2023-03-23T05:43:54;15.80;56.00
19654;DHT22;9975;48.046;7.804;2023-03-23T05:46:20;15.80;56.20
19654;DHT22;9975;48.046;7.804;2023-03-23T05:48:45;15.80;56.30
19654;DHT22;9975;48.046;7.804;2023-03-23T05:51:11;15.80;56.50
19654;DHT22;9975;48.046;7.804;2023-03-23T05:53:37;15.70;56.20
19654;DHT22;9975;48.046;7.804;2023-03-23T05:56:03;15.80;56.90
19654;DHT22;9975;48.046;7.804;2023-03-23T05:58:29;15.70;56.90
19654;DHT22;9975;48.046;7.804;2023-03-23T06:00:55;15.70;57.30
19654;DHT22;9975;48.046;7.804;2023-03-23T06:03:21;15.70;57.30
19654;DHT22;9975;48.046;7.804;2023-03-23T06:05:48;15.70;57.70
19654;DHT22;9975;48.046;7.804;2023-03-23T06:08:14;15.60;57.80
19654;DHT22;9975;48.046;7.804;2023-03-23T06:10:40;15.60;58.10
19654;DHT22;9975;48.046;7.804;2023-03-23T06:13:05;15.60;58.60
19654;DHT22;9975;48.046;7.804;2023-03-23T06:15:31;15.50;58.80
19654;DHT22;9975;48.046;7.804;2023-03-23T06:17:59;15.50;58.90
19654;DHT22;9975;48.046;7.804;2023-03-23T06:20:25;15.50;59.10
19654;DHT22;9975;48.046;7.804;2023-03-23T06:22:50;15.40;59.20
19654;DHT22;9975;48.046;7.804;2023-03-23T06:25:18;15.40;59.30
19654;DHT22;9975;48.046;7.804;2023-03-23T06:27:44;15.30;59.40
19654;DHT22;9975;48.046;7.804;2023-03-23T06:30:11;15.30;59.60
19654;DHT22;9975;48.046;7.804;2023-03-23T06:32:37;15.30;59.70
19654;DHT22;9975;48.046;7.804;2023-03-23T06:35:04;15.30;59.50
19654;DHT22;9975;48.046;7.804;2023-03-23T06:37:30;15.20;60.10
19654;DHT22;9975;48.046;7.804;2023-03-23T06:39:56;15.20;60.30
19654;DHT22;9975;48.046;7.804;2023-03-23T06:42:23;15.20;60.50
19654;DHT22;9975;48.046;7.804;2023-03-23T06:44:52;15.20;60.70
19654;DHT22;9975;48.046;7.804;2023-03-23T06:47:18;15.20;60.70
19654;DHT22;9975;48.046;7.804;2023-03-23T06:49:43;15.20;61.00
19654;DHT22;9975;48.046;7.804;2023-03-23T06:52:09;15.10;61.40
19654;DHT22;9975;48.046;7.804;2023-03-23T06:54:35;15.20;61.40
19654;DHT22;9975;48.046;7.804;2023-03-23T06:57:01;15.10;61.60
19654;DHT22;9975;48.046;7.804;2023-03-23T06:59:26;15.20;61.80
19654;DHT22;9975;48.046;7.804;2023-03-23T07:01:52;15.10;62.80
19654;DHT22;9975;48.046;7.804;2023-03-23T07:04:18;15.10;62.10
19654;DHT22;9975;48.046;7.804;2023-03-23T07:06:43;15.10;62.00
19654;DHT22;9975;48.046;7.804;2023-03-23T07:09:09;15.10;62.30
19654;DHT22;9975;48.046;7.804;2023-03-23T07:11:34;15.10;61.10
19654;DHT22;9975;48.046;7.804;2023-03-23T07:14:01;15.10;62.70
19654;DHT22;9975;48.046;7.804;2023-03-23T07:16:27;15.10;61.80
19654;DHT22;9975;48.046;7.804;2023-03-23T07:18:53;15.10;61.90
19654;DHT22;9975;48.046;7.804;2023-03-23T07:21:18;15.10;62.10
19654;DHT22;9975;48.046;7.804;2023-03-23T07:23:44;15.10;63.40
19654;DHT22;9975;48.046;7.804;2023-03-23T07:26:11;15.10;64.00
19654;DHT22;9975;48.046;7.804;2023-03-23T07:28:38;15.10;63.80
19654;DHT22;9975;48.046;7.804;2023-03-23T07:31:05;15.10;65.50
19654;DHT22;9975;48.046;7.804;2023-03-23T07:33:32;15.00;67.50
19654;DHT22;9975;48.046;7.804;2023-03-23T07:35:59;15.00;68.20
19654;DHT22;9975;48.046;7.804;2023-03-23T07:38:26;14.90;70.30
19654;DHT22;9975;48.046;7.804;2023-03-23T07:40:53;14.80;71.20
19654;DHT22;9975;48.046;7.804;2023-03-23T07:43:19;14.70;71.30
19654;DHT22;9975;48.046;7.804;2023-03-23T07:45:45;14.60;71.40
19654;DHT22;9975;48.046;7.804;2023-03-23T07:48:11;14.60;73.50
19654;DHT22;9975;48.046;7.804;2023-03-23T07:50:37;14.60;72.80
19654;DHT22;9975;48.046;7.804;2023-03-23T07:53:03;14.60;73.20
19654;DHT22;9975;48.046;7.804;2023-03-23T07:55:29;14.50;73.50
19654;DHT22;9975;48.046;7.804;2023-03-23T07:57:55;14.50;74.80
19654;DHT22;9975;48.046;7.804;2023-03-23T08:00:22;14.40;75.60
19654;DHT22;9975;48.046;7.804;2023-03-23T08:02:51;14.30;76.50
19654;DHT22;9975;48.046;7.804;2023-03-23T08:05:19;14.30;78.10
19654;DHT22;9975;48.046;7.804;2023-03-23T08:07:46;14.30;79.00
19654;DHT22;9975;48.046;7.804;2023-03-23T08:10:13;14.20;79.00
19654;DHT22;9975;48.046;7.804;2023-03-23T08:12:41;14.20;79.70
19654;DHT22;9975;48.046;7.804;2023-03-23T08:15:09;14.20;79.20
19654;DHT22;9975;48.046;7.804;2023-03-23T08:17:39;14.20;79.80
19654;DHT22;9975;48.046;7.804;2023-03-23T08:20:06;14.20;80.10
19654;DHT22;9975;48.046;7.804;2023-03-23T08:22:37;14.30;81.50
19654;DHT22;9975;48.046;7.804;2023-03-23T08:25:05;14.20;82.60
19654;DHT22;9975;48.046;7.804;2023-03-23T08:27:31;14.20;82.70
19654;DHT22;9975;48.046;7.804;2023-03-23T08:29:57;14.20;83.70
19654;DHT22;9975;48.046;7.804;2023-03-23T08:32:23;14.20;85.40
19654;DHT22;9975;48.046;7.804;2023-03-23T08:34:49;14.00;86.30
19654;DHT22;9975;48.046;7.804;2023-03-23T08:37:15;14.00;87.00
19654;DHT22;9975;48.046;7.804;2023-03-23T08:39:42;14.10;87.00
19654;DHT22;9975;48.046;7.804;2023-03-23T08:42:10;14.10;87.50
19654;DHT22;9975;48.046;7.804;2023-03-23T08:44:37;14.10;88.00
19654;DHT22;9975;48.046;7.804;2023-03-23T08:47:03;14.10;89.50
19654;DHT22;9975;48.046;7.804;2023-03-23T08:49:31;14.10;88.60
19654;DHT22;9975;48.046;7.804;2023-03-23T08:51:58;14.10;89.30
19654;DHT22;9975;48.046;7.804;2023-03-23T08:54:25;14.20;90.30
19654;DHT22;9975;48.046;7.804;2023-03-23T08:56:50;14.10;90.80
19654;DHT22;9975;48.046;7.804;2023-03-23T08:59:16;14.20;91.50
19654;DHT22;9975;48.046;7.804;2023-03-23T09:01:42;14.20;90.90
19654;DHT22;9975;48.046;7.804;2023-03-23T09:04:08;14.20;90.80
19654;DHT22;9975;48.046;7.804;2023-03-23T09:06:37;14.30;90.90
19654;DHT22;9975;48.046;7.804;2023-03-23T09:09:04;14.20;90.40
19654;DHT22;9975;48.046;7.804;2023-03-23T09:11:35;14.30;90.40
19654;DHT22;9975;48.046;7.804;2023-03-23T09:14:02;14.30;90.90
19654;DHT22;9975;48.046;7.804;2023-03-23T09:16:28;14.30;92.30
19654;DHT22;9975;48.046;7.804;2023-03-23T09:18:54;14.30;93.10
19654;DHT22;9975;48.046;7.804;2023-03-23T09:21:25;14.30;92.40
19654;DHT22;9975;48.046;7.804;2023-03-23T09:23:51;14.30;92.40
19654;DHT22;9975;48.046;7.804;2023-03-23T09:26:18;14.40;91.90
19654;DHT22;9975;48.046;7.804;2023-03-23T09:28:44;14.40;92.30
19654;DHT22;9975;48.046;7.804;2023-03-23T09:31:11;14.50;90.80
19654;DHT22;9975;48.046;7.804;2023-03-23T09:33:38;14.60;91.90
19654;DHT22;9975;48.046;7.804;2023-03-23T09:36:04;14.70;92.70
19654;DHT22;9975;48.046;7.804;2023-03-23T09:38:31;14.80;92.30
19654;DHT22;9975;48.046;7.804;2023-03-23T09:41:10;14.80;91.00
19654;DHT22;9975;48.046;7.804;2023-03-23T09:43:56;14.70;89.00
19654;DHT22;9975;48.046;7.804;2023-03-23T09:46:42;14.80;89.30
19654;DHT22;9975;48.046;7.804;2023-03-23T09:49:13;14.80;89.30
19654;DHT22;9975;48.046;7.804;2023-03-23T09:51:47;14.90;87.50
19654;DHT22;9975;48.046;7.804;2023-03-23T09:54:28;14.90;84.60
19654;DHT22;9975;48.046;7.804;2023-03-23T09:56:55;14.90;83.80
19654;DHT22;9975;48.046;7.804;2023-03-23T09:59:35;15.00;82.50
19654;DHT22;9975;48.046;7.804;2023-03-23T10:02:12;15.00;83.70
19654;DHT22;9975;48.046;7.804;2023-03-23T10:04:41;15.10;79.70
19654;DHT22;9975;48.046;7.804;2023-03-23T10:07:23;15.20;79.10
19654;DHT22;9975;48.046;7.804;2023-03-23T10:09:56;15.20;80.20
19654;DHT22;9975;48.046;7.804;2023-03-23T10:15:14;15.30;77.40
19654;DHT22;9975;48.046;7.804;2023-03-23T10:24:08;15.50;73.40
19654;DHT22;9975;48.046;7.804;2023-03-23T10:28:50;15.90;71.30
19654;DHT22;9975;48.046;7.804;2023-03-23T10:31:39;15.90;71.10
19654;DHT22;9975;48.046;7.804;2023-03-23T10:34:28;16.30;72.60
19654;DHT22;9975;48.046;7.804;2023-03-23T10:37:07;16.90;66.40
19654;DHT22;9975;48.046;7.804;2023-03-23T10:39:58;16.80;66.90
19654;DHT22;9975;48.046;7.804;2023-03-23T10:42:31;17.00;67.90
19654;DHT22;9975;48.046;7.804;2023-03-23T10:45:00;17.00;67.40
19654;DHT22;9975;48.046;7.804;2023-03-23T10:47:37;17.00;66.40
19654;DHT22;9975;48.046;7.804;2023-03-23T10:50:06;17.00;66.40
19654;DHT22;9975;48.046;7.804;2023-03-23T10:52:38;17.10;65.60
19654;DHT22;9975;48.046;7.804;2023-03-23T10:55:15;17.10;64.20
19654;DHT22;9975;48.046;7.804;2023-03-23T10:57:44;17.10;64.10
19654;DHT22;9975;48.046;7.804;2023-03-23T11:00:24;17.20;63.30
19654;DHT22;9975;48.046;7.804;2023-03-23T11:03:20;17.20;63.40
19654;DHT22;9975;48.046;7.804;2023-03-23T11:06:02;17.20;63.20
19654;DHT22;9975;48.046;7.804;2023-03-23T11:08:32;17.30;62.40
19654;DHT22;9975;48.046;7.804;2023-03-23T11:11:24;17.30;62.20
19654;DHT22;9975;48.046;7.804;2023-03-23T11:14:11;17.30;61.60
19654;DHT22;9975;48.046;7.804;2023-03-23T11:16:43;17.40;61.60
19654;DHT22;9975;48.046;7.804;2023-03-23T11:19:21;17.40;62.00
19654;DHT22;9975;48.046;7.804;2023-03-23T11:21:53;17.50;61.90
19654;DHT22;9975;48.046;7.804;2023-03-23T11:24:22;17.50;61.30
19654;DHT22;9975;48.046;7.804;2023-03-23T11:26:50;17.50;61.80
19654;DHT22;9975;48.046;7.804;2023-03-23T11:29:21;17.60;62.00
19654;DHT22;9975;48.046;7.804;2023-03-23T11:31:50;17.50;60.30
19654;DHT22;9975;48.046;7.804;2023-03-23T11:34:32;17.60;60.60
19654;DHT22;9975;48.046;7.804;2023-03-23T11:37:02;17.70;60.50
19654;DHT22;9975;48.046;7.804;2023-03-23T11:39:29;17.80;59.90
19654;DHT22;9975;48.046;7.804;2023-03-23T11:41:58;17.70;59.90
19654;DHT22;9975;48.046;7.804;2023-03-23T11:44:33;17.90;59.50
19654;DHT22;9975;48.046;7.804;2023-03-23T11:47:27;17.90;59.80
19654;DHT22;9975;48.046;7.804;2023-03-23T11:50:20;17.90;60.40
19654;DHT22;9975;48.046;7.804;2023-03-23T11:55:35;18.00;60.50
19654;DHT22;9975;48.046;7.804;2023-03-23T11:58:13;18.00;59.30
19654;DHT22;9975;48.046;7.804;2023-03-23T12:00:53;18.00;58.90
19654;DHT22;9975;48.046;7.804;2023-03-23T12:03:20;18.00;58.90
19654;DHT22;9975;48.046;7.804;2023-03-23T12:14:02;17.90;57.10
19654;DHT22;9975;48.046;7.804;2023-03-23T12:16:49;17.90;57.20
19654;DHT22;9975;48.046;7.804;2023-03-23T12:25:12;17.80;57.60
19654;DHT22;9975;48.046;7.804;2023-03-23T12:34:23;17.80;56.60
19654;DHT22;9975;48.046;7.804;2023-03-23T12:42:47;17.90;57.40
19654;DHT22;9975;48.046;7.804;2023-03-23T12:47:57;17.80;58.10
19654;DHT22;9975;48.046;7.804;2023-03-23T12:51:00;17.80;58.20
19654;DHT22;9975;48.046;7.804;2023-03-23T12:53:56;17.70;58.10
19654;DHT22;9975;48.046;7.804;2023-03-23T12:59:22;17.80;57.30
19654;DHT22;9975;48.046;7.804;2023-03-23T13:04:44;17.70;57.20
19654;DHT22;9975;48.046;7.804;2023-03-23T13:07:16;17.70;56.80
19654;DHT22;9975;48.046;7.804;2023-03-23T13:10:01;17.70;56.50
19654;DHT22;9975;48.046;7.804;2023-03-23T13:12:28;17.70;56.30
19654;DHT22;9975;48.046;7.804;2023-03-23T13:23:31;17.50;55.80
19654;DHT22;9975;48.046;7.804;2023-03-23T13:26:08;17.50;55.20
19654;DHT22;9975;48.046;7.804;2023-03-23T13:31:26;17.50;55.70
19654;DHT22;9975;48.046;7.804;2023-03-23T13:34:03;17.50;56.00
19654;DHT22;9975;48.046;7.804;2023-03-23T13:36:39;17.40;55.80
19654;DHT22;9975;48.046;7.804;2023-03-23T13:39:16;17.40;56.00
19654;DHT22;9975;48.046;7.804;2023-03-23T13:50:00;17.40;55.70
19654;DHT22;9975;48.046;7.804;2023-03-23T14:05:44;17.30;54.10
19654;DHT22;9975;48.046;7.804;2023-03-23T14:10:50;17.40;54.00
19654;DHT22;9975;48.046;7.804;2023-03-23T14:13:19;17.30;53.30
19654;DHT22;9975;48.046;7.804;2023-03-23T14:16:21;17.30;53.30
19654;DHT22;9975;48.046;7.804;2023-03-23T14:18:55;17.30;53.80
19654;DHT22;9975;48.046;7.804;2023-03-23T14:21:41;17.20;53.70
19654;DHT22;9975;48.046;7.804;2023-03-23T14:24:12;17.30;53.90
19654;DHT22;9975;48.046;7.804;2023-03-23T14:26:40;17.20;53.80
19654;DHT22;9975;48.046;7.804;2023-03-23T14:29:10;15.50;53.60
19654;DHT22;9975;48.046;7.804;2023-03-23T14:31:37;17.20;54.10
19654;DHT22;9975;48.046;7.804;2023-03-23T14:34:10;17.20;54.60
19654;DHT22;9975;48.046;7.804;2023-03-23T14:36:38;17.10;54.40
19654;DHT22;9975;48.046;7.804;2023-03-23T14:41:42;17.10;53.60
19654;DHT22;9975;48.046;7.804;2023-03-23T14:44:13;17.10;54.10
19654;DHT22;9975;48.046;7.804;2023-03-23T14:46:41;17.10;55.00
19654;DHT22;9975;48.046;7.804;2023-03-23T14:49:14;17.20;54.50
19654;DHT22;9975;48.046;7.804;2023-03-23T14:51:53;17.30;54.50
19654;DHT22;9975;48.046;7.804;2023-03-23T14:54:27;17.30;54.50
19654;DHT22;9975;48.046;7.804;2023-03-23T14:56:54;17.30;54.60
19654;DHT22;9975;48.046;7.804;2023-03-23T14:59:20;17.30;55.50
19654;DHT22;9975;48.046;7.804;2023-03-23T15:01:47;17.30;55.30
19654;DHT22;9975;48.046;7.804;2023-03-23T15:04:24;17.20;54.50
19654;DHT22;9975;48.046;7.804;2023-03-23T15:07:03;17.30;54.60
19654;DHT22;9975;48.046;7.804;2023-03-23T15:09:29;17.30;54.30
19654;DHT22;9975;48.046;7.804;2023-03-23T15:11:58;17.30;54.60
19654;DHT22;9975;48.046;7.804;2023-03-23T15:16:56;17.20;54.60
19654;DHT22;9975;48.046;7.804;2023-03-23T15:19:26;17.20;54.70
19654;DHT22;9975;48.046;7.804;2023-03-23T15:21:56;17.20;54.70
19654;DHT22;9975;48.046;7.804;2023-03-23T15:24:48;17.30;54.60
19654;DHT22;9975;48.046;7.804;2023-03-23T15:29:56;17.20;54.90
19654;DHT22;9975;48.046;7.804;2023-03-23T15:32:31;17.20;55.10
19654;DHT22;9975;48.046;7.804;2023-03-23T15:35:10;17.20;54.90
19654;DHT22;9975;48.046;7.804;2023-03-23T15:37:43;17.30;55.10
19654;DHT22;9975;48.046;7.804;2023-03-23T15:40:23;17.20;55.40
19654;DHT22;9975;48.046;7.804;2023-03-23T15:45:59;17.20;55.50
19654;DHT22;9975;48.046;7.804;2023-03-23T15:51:20;17.10;55.70
19654;DHT22;9975;48.046;7.804;2023-03-23T15:53:47;17.00;55.80
19654;DHT22;9975;48.046;7.804;2023-03-23T15:56:14;17.00;56.10
19654;DHT22;9975;48.046;7.804;2023-03-23T15:58:39;17.00;56.30
19654;DHT22;9975;48.046;7.804;2023-03-23T16:01:26;17.00;56.90
19654;DHT22;9975;48.046;7.804;2023-03-23T16:04:11;17.00;56.60
19654;DHT22;9975;48.046;7.804;2023-03-23T16:06:39;17.00;57.10
19654;DHT22;9975;48.046;7.804;2023-03-23T16:09:06;17.00;56.40
19654;DHT22;9975;48.046;7.804;2023-03-23T16:11:32;17.00;56.80
19654;DHT22;9975;48.046;7.804;2023-03-23T16:13:58;17.00;56.60
19654;DHT22;9975;48.046;7.804;2023-03-23T16:16:41;17.00;56.80
19654;DHT22;9975;48.046;7.804;2023-03-23T16:19:08;17.00;57.00
19654;DHT22;9975;48.046;7.804;2023-03-23T16:21:35;17.00;57.00
19654;DHT22;9975;48.046;7.804;2023-03-23T16:24:01;17.00;56.60
19654;DHT22;9975;48.046;7.804;2023-03-23T16:26:26;17.00;56.80
19654;DHT22;9975;48.046;7.804;2023-03-23T16:28:52;17.00;57.20
19654;DHT22;9975;48.046;7.804;2023-03-23T16:31:18;17.00;57.20
19654;DHT22;9975;48.046;7.804;2023-03-23T16:33:44;16.90;57.30
19654;DHT22;9975;48.046;7.804;2023-03-23T16:36:11;16.90;57.30
19654;DHT22;9975;48.046;7.804;2023-03-23T16:38:38;16.80;57.40
19654;DHT22;9975;48.046;7.804;2023-03-23T16:41:04;16.80;57.90
19654;DHT22;9975;48.046;7.804;2023-03-23T16:43:29;16.80;57.90
19654;DHT22;9975;48.046;7.804;2023-03-23T16:45:56;16.70;57.90
19654;DHT22;9975;48.046;7.804;2023-03-23T16:48:27;16.80;58.70
19654;DHT22;9975;48.046;7.804;2023-03-23T16:50:53;16.90;58.00
19654;DHT22;9975;48.046;7.804;2023-03-23T16:53:21;16.80;58.10
19654;DHT22;9975;48.046;7.804;2023-03-23T16:55:51;16.80;58.20
19654;DHT22;9975;48.046;7.804;2023-03-23T16:58:16;16.80;58.20
19654;DHT22;9975;48.046;7.804;2023-03-23T17:00:44;16.70;58.30
19654;DHT22;9975;48.046;7.804;2023-03-23T17:03:11;16.80;58.40
19654;DHT22;9975;48.046;7.804;2023-03-23T17:05:37;16.80;58.30
19654;DHT22;9975;48.046;7.804;2023-03-23T17:08:05;16.80;58.20
19654;DHT22;9975;48.046;7.804;2023-03-23T17:10:31;16.80;58.30
19654;DHT22;9975;48.046;7.804;2023-03-23T17:12:57;16.70;58.50
19654;DHT22;9975;48.046;7.804;2023-03-23T17:15:24;16.70;58.60
19654;DHT22;9975;48.046;7.804;2023-03-23T17:17:50;16.70;58.60
19654;DHT22;9975;48.046;7.804;2023-03-23T17:20:17;16.70;58.60
19654;DHT22;9975;48.046;7.804;2023-03-23T17:22:42;16.60;58.60
19654;DHT22;9975;48.046;7.804;2023-03-23T17:25:09;16.60;58.60
19654;DHT22;9975;48.046;7.804;2023-03-23T17:27:35;16.60;58.90
19654;DHT22;9975;48.046;7.804;2023-03-23T17:30:05;16.60;59.00
19654;DHT22;9975;48.046;7.804;2023-03-23T17:32:31;16.60;58.90
19654;DHT22;9975;48.046;7.804;2023-03-23T17:34:57;16.60;58.80
19654;DHT22;9975;48.046;7.804;2023-03-23T17:37:23;16.60;58.90
19654;DHT22;9975;48.046;7.804;2023-03-23T17:39:48;16.60;59.00
19654;DHT22;9975;48.046;7.804;2023-03-23T17:42:14;16.60;58.90
19654;DHT22;9975;48.046;7.804;2023-03-23T17:44:40;16.50;59.20
19654;DHT22;9975;48.046;7.804;2023-03-23T17:47:06;16.50;59.20
19654;DHT22;9975;48.046;7.804;2023-03-23T17:49:32;16.50;59.40
19654;DHT22;9975;48.046;7.804;2023-03-23T17:51:58;16.50;59.30
19654;DHT22;9975;48.046;7.804;2023-03-23T17:54:24;16.50;59.30
19654;DHT22;9975;48.046;7.804;2023-03-23T17:56:51;16.40;59.30
19654;DHT22;9975;48.046;7.804;2023-03-23T17:59:18;16.50;59.20
19654;DHT22;9975;48.046;7.804;2023-03-23T18:01:43;16.40;59.30
19654;DHT22;9975;48.046;7.804;2023-03-23T18:04:12;16.40;59.40
19654;DHT22;9975;48.046;7.804;2023-03-23T18:06:37;16.40;59.40
19654;DHT22;9975;48.046;7.804;2023-03-23T18:09:17;16.40;59.20
19654;DHT22;9975;48.046;7.804;2023-03-23T18:11:43;16.40;59.30
19654;DHT22;9975;48.046;7.804;2023-03-23T18:14:08;16.40;59.10
19654;DHT22;9975;48.046;7.804;2023-03-23T18:16:34;16.40;58.60
19654;DHT22;9975;48.046;7.804;2023-03-23T18:19:00;16.40;59.10
19654;DHT22;9975;48.046;7.804;2023-03-23T18:21:25;16.40;59.80
19654;DHT22;9975;48.046;7.804;2023-03-23T18:23:51;16.30;59.00
19654;DHT22;9975;48.046;7.804;2023-03-23T18:26:17;16.40;58.90
19654;DHT22;9975;48.046;7.804;2023-03-23T18:28:46;16.30;58.80
19654;DHT22;9975;48.046;7.804;2023-03-23T18:31:14;16.40;58.60
19654;DHT22;9975;48.046;7.804;2023-03-23T18:33:41;16.30;58.60
19654;DHT22;9975;48.046;7.804;2023-03-23T18:36:08;16.30;58.40
19654;DHT22;9975;48.046;7.804;2023-03-23T18:38:34;16.30;58.30
19654;DHT22;9975;48.046;7.804;2023-03-23T18:40:59;16.40;57.80
19654;DHT22;9975;48.046;7.804;2023-03-23T18:43:25;16.40;57.70
19654;DHT22;9975;48.046;7.804;2023-03-23T18:45:55;16.40;58.10
19654;DHT22;9975;48.046;7.804;2023-03-23T18:48:22;16.40;58.30
19654;DHT22;9975;48.046;7.804;2023-03-23T18:50:50;16.30;57.90
19654;DHT22;9975;48.046;7.804;2023-03-23T18:53:17;16.40;57.90
19654;DHT22;9975;48.046;7.804;2023-03-23T18:55:43;16.30;58.30
19654;DHT22;9975;48.046;7.804;2023-03-23T18:58:11;16.30;57.80
19654;DHT22;9975;48.046;7.804;2023-03-23T19:00:37;16.30;57.90
19654;DHT22;9975;48.046;7.804;2023-03-23T19:03:03;16.20;58.40
19654;DHT22;9975;48.046;7.804;2023-03-23T19:05:30;16.20;58.60
19654;DHT22;9975;48.046;7.804;2023-03-23T19:07:56;16.20;59.20
19654;DHT22;9975;48.046;7.804;2023-03-23T19:10:22;16.10;59.00
19654;DHT22;9975;48.046;7.804;2023-03-23T19:12:49;16.00;59.40
19654;DHT22;9975;48.046;7.804;2023-03-23T19:15:15;16.00;58.80
19654;DHT22;9975;48.046;7.804;2023-03-23T19:17:42;16.00;59.20
19654;DHT22;9975;48.046;7.804;2023-03-23T19:20:08;16.00;59.20
19654;DHT22;9975;48.046;7.804;2023-03-23T19:22:43;15.90;59.50
19654;DHT22;9975;48.046;7.804;2023-03-23T19:25:09;15.90;59.90
19654;DHT22;9975;48.046;7.804;2023-03-23T19:27:35;15.80;61.00
19654;DHT22;9975;48.046;7.804;2023-03-23T19:30:01;15.70;61.90
19654;DHT22;9975;48.046;7.804;2023-03-23T19:32:26;15.70;62.40
19654;DHT22;9975;48.046;7.804;2023-03-23T19:34:52;15.70;62.90
19654;DHT22;9975;48.046;7.804;2023-03-23T19:37:18;15.70;63.90
19654;DHT22;9975;48.046;7.804;2023-03-23T19:39:44;15.60;64.10
19654;DHT22;9975;48.046;7.804;2023-03-23T19:42:10;15.70;63.90
19654;DHT22;9975;48.046;7.804;2023-03-23T19:44:36;15.60;63.90
19654;DHT22;9975;48.046;7.804;2023-03-23T19:47:01;15.60;64.80
19654;DHT22;9975;48.046;7.804;2023-03-23T19:49:27;15.50;65.70
19654;DHT22;9975;48.046;7.804;2023-03-23T19:51:53;15.40;65.90